Saturday, November 18, 2017, 1:14 AM EST
Back to Local

KSFM, Sanford, Sanford Regional Airport

Location: Sanford, ME, United States Lat: 43.4
Local Time: 1:14 AM EST ( 6:14 GMT) Lon: -70.717
Time Zone: US/Eastern Elev: 242 ft

Show me the last for .
Show Decoded

2017-11-18 00:56 METAR KSFM 180556Z AUTO 27007KT 10SM CLR M06/M09 A2996 RMK AO2 SLP153 T10561094
                 11011 21078 55000 FZRANO =
2017-11-17 23:56 METAR KSFM 180456Z AUTO 29003KT 10SM CLR M04/M09 A2996 RMK AO2 SLP151 T10441094
                 FZRANO =
2017-11-17 22:56 METAR KSFM 180356Z AUTO 28004KT 10SM CLR M03/M09 A2996 RMK AO2 SLP151 T10281094
                 400391033 FZRANO =
2017-11-17 20:56 METAR KSFM 180156Z AUTO 28005KT 10SM CLR M02/M08 A2995 RMK AO2 SLP149 T10221083
                 FZRANO =
2017-11-17 19:56 METAR KSFM 180056Z AUTO 27009KT 10SM CLR M02/M08 A2994 RMK AO2 SLP144 T10171078
                 FZRANO =
2017-11-17 18:56 METAR KSFM 172356Z AUTO 26008KT 10SM CLR M02/M07 A2993 RMK AO2 SLP140 T10171072
                 10039 21017 51019 FZRANO =
2017-11-17 17:56 METAR KSFM 172256Z AUTO 27011KT 10SM CLR M01/M07 A2992 RMK AO2 SLP136 T10061067
                 FZRANO =
2017-11-17 16:56 METAR KSFM 172156Z AUTO 26008KT 10SM CLR M01/M06 A2991 RMK AO2 SLP133 T10061061
                 FZRANO =
2017-11-17 15:56 METAR KSFM 172056Z AUTO 29009G16KT 10SM CLR 01/M06 A2987 RMK AO2 SLP122
                 T00111061 53020 FZRANO =
2017-11-17 14:56 METAR KSFM 171956Z AUTO 28010G17KT 10SM CLR 02/M05 A2985 RMK AO2 SLP114
                 T00221050 FZRANO =
2017-11-17 13:56 METAR KSFM 171856Z AUTO 28013G20KT 10SM CLR 04/M05 A2982 RMK AO2 PK WND
                 28028/1803 SLP105 T00391050 =
2017-11-17 12:56 METAR KSFM 171756Z AUTO 27017G24KT 10SM CLR 03/M05 A2982 RMK AO2 PK WND
                 31028/1658 SLP102 T00331050 10039 20017 51001 =
2017-11-17 11:56 METAR KSFM 171656Z AUTO 29014G22KT 10SM CLR 04/M04 A2982 RMK AO2 SLP101
                 T00391039 =
2017-11-17 10:56 METAR KSFM 171556Z AUTO 30019G28KT 10SM CLR 04/M04 A2982 RMK AO2 PK WND
                 28030/1502 SLP104 T00391039 =
2017-11-17 09:56 METAR KSFM 171456Z AUTO 29018G27KT 10SM CLR 03/M04 A2981 RMK AO2 PK WND
                 29031/1411 SLP101 T00331039 51021 =
2017-11-17 08:56 METAR KSFM 171356Z AUTO 30011G21KT 10SM FEW120 03/M04 A2980 RMK AO2 SLP098
                 T00281044 =
2017-11-17 07:56 METAR KSFM 171256Z AUTO 29016G23KT 10SM SCT090 02/M04 A2978 RMK AO2 PK WND
                 29026/1224 SLP090 T00221039 FZRANO =
2017-11-17 06:56 METAR KSFM 171156Z AUTO 29011G18KT 10SM OVC090 02/M03 A2975 RMK AO2 SLP080 70062
                 T00221033 10028 20011 53030 FZRANO =
2017-11-17 05:56 METAR KSFM 171056Z AUTO 29016G21KT 10SM OVC090 03/M03 A2972 RMK AO2 SLP067
                 T00281028 =
2017-11-17 04:56 METAR KSFM 170956Z AUTO 29013G17KT 10SM BKN100 02/M01 A2969 RMK AO2 SLP057
                 T00221011 FZRANO =
2017-11-17 03:56 METAR KSFM 170856Z AUTO 29010KT 10SM SCT085 SCT100 03/01 A2966 RMK AO2 SLP050
                 T00280006 51012 =
2017-11-17 02:56 METAR KSFM 170756Z AUTO 29010G17KT 10SM OVC080 03/02 A2965 RMK AO2 SLP046
                 T00280017 =
2017-11-17 01:56 METAR KSFM 170656Z AUTO 27008KT 10SM CLR 02/02 A2964 RMK AO2 SLP043 T00220022
                 FZRANO =

Support USWX by starting your Amazon purchase here.